sensor_id;sensor_type;location;lat;lon;timestamp;P1;durP1;ratioP1;P2;durP2;ratioP2
23322;SDS011;11833;52.554;13.554;2024-02-28T00:00:00;19.08;;;11.90;;
23322;SDS011;11833;52.554;13.554;2024-02-28T00:02:26;19.85;;;12.50;;
23322;SDS011;11833;52.554;13.554;2024-02-28T00:04:53;18.48;;;11.50;;
23322;SDS011;11833;52.554;13.554;2024-02-28T00:07:18;17.10;;;10.60;;
23322;SDS011;11833;52.554;13.554;2024-02-28T00:09:44;17.77;;;11.43;;
23322;SDS011;11833;52.554;13.554;2024-02-28T00:12:10;19.10;;;11.27;;
23322;SDS011;11833;52.554;13.554;2024-02-28T00:14:36;16.90;;;11.05;;
23322;SDS011;11833;52.554;13.554;2024-02-28T00:17:02;18.67;;;11.77;;
23322;SDS011;11833;52.554;13.554;2024-02-28T00:19:27;22.10;;;11.68;;
23322;SDS011;11833;52.554;13.554;2024-02-28T00:21:53;20.05;;;12.23;;
23322;SDS011;11833;52.554;13.554;2024-02-28T00:24:19;19.40;;;12.03;;
23322;SDS011;11833;52.554;13.554;2024-02-28T00:26:44;18.83;;;11.70;;
23322;SDS011;11833;52.554;13.554;2024-02-28T00:29:10;18.27;;;12.35;;
23322;SDS011;11833;52.554;13.554;2024-02-28T00:31:36;18.00;;;11.30;;
23322;SDS011;11833;52.554;13.554;2024-02-28T00:34:02;18.77;;;11.37;;
23322;SDS011;11833;52.554;13.554;2024-02-28T00:36:27;26.45;;;16.10;;
23322;SDS011;11833;52.554;13.554;2024-02-28T00:38:53;16.97;;;11.30;;
23322;SDS011;11833;52.554;13.554;2024-02-28T00:41:19;17.67;;;11.13;;
23322;SDS011;11833;52.554;13.554;2024-02-28T00:43:44;19.88;;;12.77;;
23322;SDS011;11833;52.554;13.554;2024-02-28T00:46:10;23.93;;;14.07;;
23322;SDS011;11833;52.554;13.554;2024-02-28T00:48:39;18.48;;;11.52;;
23322;SDS011;11833;52.554;13.554;2024-02-28T00:51:04;17.23;;;10.60;;
23322;SDS011;11833;52.554;13.554;2024-02-28T00:53:30;15.75;;;10.75;;
23322;SDS011;11833;52.554;13.554;2024-02-28T00:55:56;18.33;;;11.75;;
23322;SDS011;11833;52.554;13.554;2024-02-28T00:58:22;16.80;;;10.57;;
23322;SDS011;11833;52.554;13.554;2024-02-28T01:00:48;15.27;;;9.50;;
23322;SDS011;11833;52.554;13.554;2024-02-28T01:03:13;14.32;;;9.60;;
23322;SDS011;11833;52.554;13.554;2024-02-28T01:05:40;14.95;;;9.95;;
23322;SDS011;11833;52.554;13.554;2024-02-28T01:08:07;13.60;;;9.15;;
23322;SDS011;11833;52.554;13.554;2024-02-28T01:10:35;12.32;;;9.05;;
23322;SDS011;11833;52.554;13.554;2024-02-28T01:13:02;13.75;;;8.50;;
23322;SDS011;11833;52.554;13.554;2024-02-28T01:15:28;12.48;;;8.80;;
23322;SDS011;11833;52.554;13.554;2024-02-28T01:17:53;14.60;;;9.02;;
23322;SDS011;11833;52.554;13.554;2024-02-28T01:20:19;14.05;;;8.85;;
23322;SDS011;11833;52.554;13.554;2024-02-28T01:22:45;12.93;;;8.87;;
23322;SDS011;11833;52.554;13.554;2024-02-28T01:25:11;14.17;;;9.67;;
23322;SDS011;11833;52.554;13.554;2024-02-28T01:27:36;14.43;;;8.75;;
23322;SDS011;11833;52.554;13.554;2024-02-28T01:30:02;14.02;;;8.60;;
23322;SDS011;11833;52.554;13.554;2024-02-28T01:32:29;13.57;;;9.53;;
23322;SDS011;11833;52.554;13.554;2024-02-28T01:34:55;15.13;;;9.32;;
23322;SDS011;11833;52.554;13.554;2024-02-28T01:37:21;13.50;;;9.27;;
23322;SDS011;11833;52.554;13.554;2024-02-28T01:39:46;14.73;;;9.45;;
23322;SDS011;11833;52.554;13.554;2024-02-28T01:42:13;15.25;;;10.05;;
23322;SDS011;11833;52.554;13.554;2024-02-28T01:44:44;15.82;;;9.70;;
23322;SDS011;11833;52.554;13.554;2024-02-28T01:47:12;16.33;;;9.93;;
23322;SDS011;11833;52.554;13.554;2024-02-28T01:49:39;15.45;;;9.57;;
23322;SDS011;11833;52.554;13.554;2024-02-28T01:52:06;13.68;;;9.07;;
23322;SDS011;11833;52.554;13.554;2024-02-28T01:54:33;12.73;;;8.50;;
23322;SDS011;11833;52.554;13.554;2024-02-28T01:57:00;13.43;;;8.30;;
23322;SDS011;11833;52.554;13.554;2024-02-28T01:59:27;13.98;;;8.98;;
23322;SDS011;11833;52.554;13.554;2024-02-28T02:01:54;14.93;;;8.77;;
23322;SDS011;11833;52.554;13.554;2024-02-28T02:04:20;13.23;;;8.05;;
23322;SDS011;11833;52.554;13.554;2024-02-28T02:06:46;13.82;;;8.98;;
23322;SDS011;11833;52.554;13.554;2024-02-28T02:09:14;12.43;;;8.47;;
23322;SDS011;11833;52.554;13.554;2024-02-28T02:11:40;14.98;;;9.20;;
23322;SDS011;11833;52.554;13.554;2024-02-28T02:14:06;13.85;;;9.63;;
23322;SDS011;11833;52.554;13.554;2024-02-28T02:16:32;14.90;;;8.70;;
23322;SDS011;11833;52.554;13.554;2024-02-28T02:18:58;13.77;;;9.27;;
23322;SDS011;11833;52.554;13.554;2024-02-28T02:21:24;12.90;;;8.70;;
23322;SDS011;11833;52.554;13.554;2024-02-28T02:23:55;13.95;;;9.50;;
23322;SDS011;11833;52.554;13.554;2024-02-28T02:26:21;15.88;;;10.20;;
23322;SDS011;11833;52.554;13.554;2024-02-28T02:28:47;17.10;;;10.07;;
23322;SDS011;11833;52.554;13.554;2024-02-28T02:31:13;12.83;;;7.77;;
23322;SDS011;11833;52.554;13.554;2024-02-28T02:33:39;16.63;;;10.40;;
23322;SDS011;11833;52.554;13.554;2024-02-28T02:36:05;14.70;;;9.55;;
23322;SDS011;11833;52.554;13.554;2024-02-28T02:38:31;17.05;;;11.15;;
23322;SDS011;11833;52.554;13.554;2024-02-28T02:40:56;14.73;;;9.57;;
23322;SDS011;11833;52.554;13.554;2024-02-28T02:43:22;15.57;;;9.97;;
23322;SDS011;11833;52.554;13.554;2024-02-28T02:45:48;16.03;;;10.07;;
23322;SDS011;11833;52.554;13.554;2024-02-28T02:48:14;14.88;;;9.02;;
23322;SDS011;11833;52.554;13.554;2024-02-28T02:50:39;12.05;;;8.15;;
23322;SDS011;11833;52.554;13.554;2024-02-28T02:53:06;14.03;;;9.33;;
23322;SDS011;11833;52.554;13.554;2024-02-28T02:55:34;14.23;;;9.50;;
23322;SDS011;11833;52.554;13.554;2024-02-28T02:58:00;13.63;;;9.03;;
23322;SDS011;11833;52.554;13.554;2024-02-28T03:00:27;12.53;;;8.47;;
23322;SDS011;11833;52.554;13.554;2024-02-28T03:02:53;12.80;;;8.70;;
23322;SDS011;11833;52.554;13.554;2024-02-28T03:05:19;14.33;;;8.33;;
23322;SDS011;11833;52.554;13.554;2024-02-28T03:07:45;13.13;;;8.37;;
23322;SDS011;11833;52.554;13.554;2024-02-28T03:10:10;10.27;;;7.53;;
23322;SDS011;11833;52.554;13.554;2024-02-28T03:12:36;12.05;;;7.68;;
23322;SDS011;11833;52.554;13.554;2024-02-28T03:15:02;11.73;;;7.28;;
23322;SDS011;11833;52.554;13.554;2024-02-28T03:17:28;10.40;;;6.65;;
23322;SDS011;11833;52.554;13.554;2024-02-28T03:19:54;11.20;;;7.43;;
23322;SDS011;11833;52.554;13.554;2024-02-28T03:22:21;11.00;;;7.35;;
23322;SDS011;11833;52.554;13.554;2024-02-28T03:24:47;10.48;;;7.03;;
23322;SDS011;11833;52.554;13.554;2024-02-28T03:27:13;10.13;;;6.82;;
23322;SDS011;11833;52.554;13.554;2024-02-28T03:29:39;10.50;;;6.78;;
23322;SDS011;11833;52.554;13.554;2024-02-28T03:32:05;10.70;;;7.30;;
23322;SDS011;11833;52.554;13.554;2024-02-28T03:34:31;10.45;;;7.05;;
23322;SDS011;11833;52.554;13.554;2024-02-28T03:36:57;9.60;;;6.07;;
23322;SDS011;11833;52.554;13.554;2024-02-28T03:39:23;7.00;;;5.38;;
23322;SDS011;11833;52.554;13.554;2024-02-28T03:41:49;8.77;;;5.90;;
23322;SDS011;11833;52.554;13.554;2024-02-28T03:44:15;7.88;;;5.85;;
23322;SDS011;11833;52.554;13.554;2024-02-28T03:46:40;7.83;;;5.90;;
23322;SDS011;11833;52.554;13.554;2024-02-28T03:49:06;6.85;;;4.68;;
23322;SDS011;11833;52.554;13.554;2024-02-28T03:51:32;8.52;;;5.95;;
23322;SDS011;11833;52.554;13.554;2024-02-28T03:53:58;9.45;;;6.20;;
23322;SDS011;11833;52.554;13.554;2024-02-28T03:56:24;7.33;;;5.07;;
23322;SDS011;11833;52.554;13.554;2024-02-28T03:58:51;8.55;;;5.93;;
23322;SDS011;11833;52.554;13.554;2024-02-28T04:01:17;7.68;;;5.15;;
23322;SDS011;11833;52.554;13.554;2024-02-28T04:03:43;8.20;;;6.03;;
23322;SDS011;11833;52.554;13.554;2024-02-28T04:06:08;8.33;;;5.27;;
23322;SDS011;11833;52.554;13.554;2024-02-28T04:08:35;7.90;;;4.90;;
23322;SDS011;11833;52.554;13.554;2024-02-28T04:11:00;6.60;;;5.30;;
23322;SDS011;11833;52.554;13.554;2024-02-28T04:13:26;8.10;;;4.90;;
23322;SDS011;11833;52.554;13.554;2024-02-28T04:15:52;5.43;;;4.30;;
23322;SDS011;11833;52.554;13.554;2024-02-28T04:18:18;6.20;;;4.63;;
23322;SDS011;11833;52.554;13.554;2024-02-28T04:20:43;5.50;;;4.10;;
23322;SDS011;11833;52.554;13.554;2024-02-28T04:23:09;7.00;;;4.53;;
23322;SDS011;11833;52.554;13.554;2024-02-28T04:25:35;6.95;;;4.75;;
23322;SDS011;11833;52.554;13.554;2024-02-28T04:28:01;5.82;;;4.13;;
23322;SDS011;11833;52.554;13.554;2024-02-28T04:30:27;5.57;;;4.18;;
23322;SDS011;11833;52.554;13.554;2024-02-28T04:32:53;6.00;;;4.63;;
23322;SDS011;11833;52.554;13.554;2024-02-28T04:35:19;5.82;;;4.00;;
23322;SDS011;11833;52.554;13.554;2024-02-28T04:37:48;5.87;;;4.40;;
23322;SDS011;11833;52.554;13.554;2024-02-28T04:40:15;4.30;;;3.50;;
23322;SDS011;11833;52.554;13.554;2024-02-28T04:42:41;5.53;;;3.90;;
23322;SDS011;11833;52.554;13.554;2024-02-28T04:45:10;5.38;;;4.25;;
23322;SDS011;11833;52.554;13.554;2024-02-28T04:47:36;5.53;;;4.38;;
23322;SDS011;11833;52.554;13.554;2024-02-28T04:50:03;5.45;;;3.88;;
23322;SDS011;11833;52.554;13.554;2024-02-28T04:52:31;5.72;;;4.40;;
23322;SDS011;11833;52.554;13.554;2024-02-28T04:54:57;5.68;;;4.07;;
23322;SDS011;11833;52.554;13.554;2024-02-28T04:57:23;5.13;;;4.10;;
23322;SDS011;11833;52.554;13.554;2024-02-28T04:59:49;5.30;;;3.20;;
23322;SDS011;11833;52.554;13.554;2024-02-28T05:02:14;4.47;;;3.43;;
23322;SDS011;11833;52.554;13.554;2024-02-28T05:04:41;5.30;;;3.50;;
23322;SDS011;11833;52.554;13.554;2024-02-28T05:07:07;5.47;;;3.58;;
23322;SDS011;11833;52.554;13.554;2024-02-28T05:09:34;5.03;;;3.65;;
23322;SDS011;11833;52.554;13.554;2024-02-28T05:12:00;4.15;;;3.20;;
23322;SDS011;11833;52.554;13.554;2024-02-28T05:14:26;3.72;;;3.35;;
23322;SDS011;11833;52.554;13.554;2024-02-28T05:16:52;4.43;;;3.50;;
23322;SDS011;11833;52.554;13.554;2024-02-28T05:19:18;4.70;;;3.30;;
23322;SDS011;11833;52.554;13.554;2024-02-28T05:21:43;4.37;;;3.33;;
23322;SDS011;11833;52.554;13.554;2024-02-28T05:24:10;4.40;;;3.20;;
23322;SDS011;11833;52.554;13.554;2024-02-28T05:26:36;3.72;;;3.20;;
23322;SDS011;11833;52.554;13.554;2024-02-28T05:29:04;4.47;;;3.40;;
23322;SDS011;11833;52.554;13.554;2024-02-28T05:31:31;4.40;;;3.70;;
23322;SDS011;11833;52.554;13.554;2024-02-28T05:33:57;5.35;;;3.75;;
23322;SDS011;11833;52.554;13.554;2024-02-28T05:36:25;6.30;;;3.88;;
23322;SDS011;11833;52.554;13.554;2024-02-28T05:38:52;5.70;;;4.20;;
23322;SDS011;11833;52.554;13.554;2024-02-28T05:41:20;6.60;;;4.50;;
23322;SDS011;11833;52.554;13.554;2024-02-28T05:43:46;7.60;;;4.53;;
23322;SDS011;11833;52.554;13.554;2024-02-28T05:46:13;5.35;;;3.80;;
23322;SDS011;11833;52.554;13.554;2024-02-28T05:48:40;4.60;;;3.72;;
23322;SDS011;11833;52.554;13.554;2024-02-28T05:51:07;7.72;;;4.30;;
23322;SDS011;11833;52.554;13.554;2024-02-28T05:53:32;6.35;;;4.07;;
23322;SDS011;11833;52.554;13.554;2024-02-28T05:56:02;10.43;;;5.63;;
23322;SDS011;11833;52.554;13.554;2024-02-28T05:58:28;5.90;;;4.28;;
23322;SDS011;11833;52.554;13.554;2024-02-28T06:00:54;7.22;;;4.10;;
23322;SDS011;11833;52.554;13.554;2024-02-28T06:03:19;7.95;;;5.60;;
23322;SDS011;11833;52.554;13.554;2024-02-28T06:05:45;7.22;;;4.85;;
23322;SDS011;11833;52.554;13.554;2024-02-28T06:08:12;6.93;;;4.47;;
23322;SDS011;11833;52.554;13.554;2024-02-28T06:10:38;6.43;;;4.63;;
23322;SDS011;11833;52.554;13.554;2024-02-28T06:13:03;7.53;;;5.07;;
23322;SDS011;11833;52.554;13.554;2024-02-28T06:15:29;6.75;;;5.07;;
23322;SDS011;11833;52.554;13.554;2024-02-28T06:17:56;6.50;;;4.18;;
23322;SDS011;11833;52.554;13.554;2024-02-28T06:20:24;6.10;;;4.20;;
23322;SDS011;11833;52.554;13.554;2024-02-28T06:22:50;6.10;;;4.63;;
23322;SDS011;11833;52.554;13.554;2024-02-28T06:25:15;6.30;;;4.43;;
23322;SDS011;11833;52.554;13.554;2024-02-28T06:27:47;7.15;;;5.22;;
23322;SDS011;11833;52.554;13.554;2024-02-28T06:30:13;7.68;;;4.80;;
23322;SDS011;11833;52.554;13.554;2024-02-28T06:32:39;7.80;;;5.47;;
23322;SDS011;11833;52.554;13.554;2024-02-28T06:35:06;9.33;;;5.27;;
23322;SDS011;11833;52.554;13.554;2024-02-28T06:37:33;8.60;;;5.20;;
23322;SDS011;11833;52.554;13.554;2024-02-28T06:39:59;8.33;;;5.30;;
23322;SDS011;11833;52.554;13.554;2024-02-28T06:42:27;12.50;;;6.82;;
23322;SDS011;11833;52.554;13.554;2024-02-28T06:44:53;10.43;;;6.65;;
23322;SDS011;11833;52.554;13.554;2024-02-28T06:47:19;8.63;;;5.67;;
23322;SDS011;11833;52.554;13.554;2024-02-28T06:49:45;8.60;;;5.70;;
23322;SDS011;11833;52.554;13.554;2024-02-28T06:52:11;7.43;;;5.25;;
23322;SDS011;11833;52.554;13.554;2024-02-28T06:54:37;8.63;;;5.10;;
23322;SDS011;11833;52.554;13.554;2024-02-28T06:57:03;5.30;;;4.43;;
23322;SDS011;11833;52.554;13.554;2024-02-28T06:59:29;7.53;;;5.07;;
23322;SDS011;11833;52.554;13.554;2024-02-28T07:01:54;6.78;;;4.70;;
23322;SDS011;11833;52.554;13.554;2024-02-28T07:04:20;6.57;;;4.18;;
23322;SDS011;11833;52.554;13.554;2024-02-28T07:06:46;6.37;;;4.33;;
23322;SDS011;11833;52.554;13.554;2024-02-28T07:09:11;8.17;;;4.73;;
23322;SDS011;11833;52.554;13.554;2024-02-28T07:11:37;7.43;;;5.18;;
23322;SDS011;11833;52.554;13.554;2024-02-28T07:14:04;10.73;;;6.00;;
23322;SDS011;11833;52.554;13.554;2024-02-28T07:16:30;11.18;;;6.70;;
23322;SDS011;11833;52.554;13.554;2024-02-28T07:19:00;9.98;;;5.88;;
23322;SDS011;11833;52.554;13.554;2024-02-28T07:21:26;8.07;;;5.65;;
23322;SDS011;11833;52.554;13.554;2024-02-28T07:23:52;10.40;;;6.63;;
23322;SDS011;11833;52.554;13.554;2024-02-28T07:26:17;15.90;;;8.10;;
23322;SDS011;11833;52.554;13.554;2024-02-28T07:28:43;10.57;;;6.87;;
23322;SDS011;11833;52.554;13.554;2024-02-28T07:31:18;11.43;;;7.30;;
23322;SDS011;11833;52.554;13.554;2024-02-28T07:33:44;10.50;;;6.57;;
23322;SDS011;11833;52.554;13.554;2024-02-28T07:36:10;9.40;;;6.63;;
23322;SDS011;11833;52.554;13.554;2024-02-28T07:38:36;10.93;;;7.43;;
23322;SDS011;11833;52.554;13.554;2024-02-28T07:41:02;11.85;;;7.90;;
23322;SDS011;11833;52.554;13.554;2024-02-28T07:43:28;13.63;;;8.25;;
23322;SDS011;11833;52.554;13.554;2024-02-28T07:45:57;12.50;;;9.18;;
23322;SDS011;11833;52.554;13.554;2024-02-28T07:48:24;11.30;;;7.72;;
23322;SDS011;11833;52.554;13.554;2024-02-28T07:50:50;12.23;;;8.05;;
23322;SDS011;11833;52.554;13.554;2024-02-28T07:53:16;16.70;;;8.73;;
23322;SDS011;11833;52.554;13.554;2024-02-28T07:55:42;12.27;;;8.17;;
23322;SDS011;11833;52.554;13.554;2024-02-28T07:58:08;13.10;;;7.73;;
23322;SDS011;11833;52.554;13.554;2024-02-28T08:00:34;11.30;;;7.43;;
23322;SDS011;11833;52.554;13.554;2024-02-28T08:03:00;12.77;;;8.10;;
23322;SDS011;11833;52.554;13.554;2024-02-28T08:05:26;11.82;;;7.75;;
23322;SDS011;11833;52.554;13.554;2024-02-28T08:07:52;11.10;;;7.30;;
23322;SDS011;11833;52.554;13.554;2024-02-28T08:10:18;12.93;;;7.80;;
23322;SDS011;11833;52.554;13.554;2024-02-28T08:12:44;11.68;;;7.32;;
23322;SDS011;11833;52.554;13.554;2024-02-28T08:15:10;14.17;;;9.40;;
23322;SDS011;11833;52.554;13.554;2024-02-28T08:17:35;12.93;;;8.77;;
23322;SDS011;11833;52.554;13.554;2024-02-28T08:20:04;12.27;;;8.50;;
23322;SDS011;11833;52.554;13.554;2024-02-28T08:22:31;13.45;;;8.60;;
23322;SDS011;11833;52.554;13.554;2024-02-28T08:24:57;12.75;;;7.90;;
23322;SDS011;11833;52.554;13.554;2024-02-28T08:27:22;14.43;;;9.25;;
23322;SDS011;11833;52.554;13.554;2024-02-28T08:29:49;11.00;;;8.13;;
23322;SDS011;11833;52.554;13.554;2024-02-28T08:32:15;11.55;;;7.63;;
23322;SDS011;11833;52.554;13.554;2024-02-28T08:34:45;12.52;;;8.30;;
23322;SDS011;11833;52.554;13.554;2024-02-28T08:37:11;11.65;;;7.80;;
23322;SDS011;11833;52.554;13.554;2024-02-28T08:39:38;10.88;;;7.50;;
23322;SDS011;11833;52.554;13.554;2024-02-28T08:42:04;11.73;;;7.43;;
23322;SDS011;11833;52.554;13.554;2024-02-28T08:44:30;13.35;;;8.65;;
23322;SDS011;11833;52.554;13.554;2024-02-28T08:46:56;11.50;;;7.53;;
23322;SDS011;11833;52.554;13.554;2024-02-28T08:49:22;11.50;;;7.50;;
23322;SDS011;11833;52.554;13.554;2024-02-28T08:51:47;10.05;;;6.88;;
23322;SDS011;11833;52.554;13.554;2024-02-28T08:54:13;18.65;;;9.20;;
23322;SDS011;11833;52.554;13.554;2024-02-28T08:56:39;13.90;;;8.53;;
23322;SDS011;11833;52.554;13.554;2024-02-28T08:59:04;12.27;;;7.20;;
23322;SDS011;11833;52.554;13.554;2024-02-28T09:01:30;10.38;;;6.65;;
23322;SDS011;11833;52.554;13.554;2024-02-28T09:03:57;9.30;;;7.00;;
23322;SDS011;11833;52.554;13.554;2024-02-28T09:06:23;8.85;;;7.05;;
23322;SDS011;11833;52.554;13.554;2024-02-28T09:08:49;8.43;;;6.68;;
23322;SDS011;11833;52.554;13.554;2024-02-28T09:11:14;8.40;;;6.33;;
23322;SDS011;11833;52.554;13.554;2024-02-28T09:13:40;8.07;;;5.75;;
23322;SDS011;11833;52.554;13.554;2024-02-28T09:16:06;7.60;;;5.55;;
23322;SDS011;11833;52.554;13.554;2024-02-28T09:18:31;14.53;;;10.77;;
23322;SDS011;11833;52.554;13.554;2024-02-28T09:20:58;9.82;;;6.65;;
23322;SDS011;11833;52.554;13.554;2024-02-28T09:23:24;7.40;;;5.70;;
23322;SDS011;11833;52.554;13.554;2024-02-28T09:25:50;6.15;;;4.70;;
23322;SDS011;11833;52.554;13.554;2024-02-28T09:28:16;7.43;;;5.15;;
23322;SDS011;11833;52.554;13.554;2024-02-28T09:30:42;6.75;;;5.03;;
23322;SDS011;11833;52.554;13.554;2024-02-28T09:33:08;6.30;;;5.07;;
23322;SDS011;11833;52.554;13.554;2024-02-28T09:35:34;8.00;;;5.80;;
23322;SDS011;11833;52.554;13.554;2024-02-28T09:38:01;6.68;;;4.93;;
23322;SDS011;11833;52.554;13.554;2024-02-28T09:40:28;6.75;;;5.00;;
23322;SDS011;11833;52.554;13.554;2024-02-28T09:42:56;6.90;;;4.85;;
23322;SDS011;11833;52.554;13.554;2024-02-28T09:45:27;7.35;;;5.25;;
23322;SDS011;11833;52.554;13.554;2024-02-28T09:47:55;8.97;;;6.40;;
23322;SDS011;11833;52.554;13.554;2024-02-28T09:50:25;13.60;;;7.97;;
23322;SDS011;11833;52.554;13.554;2024-02-28T09:52:52;10.38;;;7.43;;
23322;SDS011;11833;52.554;13.554;2024-02-28T09:55:19;10.13;;;7.00;;
23322;SDS011;11833;52.554;13.554;2024-02-28T09:57:47;9.43;;;7.18;;
23322;SDS011;11833;52.554;13.554;2024-02-28T10:00:14;10.55;;;7.03;;
23322;SDS011;11833;52.554;13.554;2024-02-28T10:02:45;11.37;;;7.10;;
23322;SDS011;11833;52.554;13.554;2024-02-28T10:05:16;17.38;;;9.05;;
23322;SDS011;11833;52.554;13.554;2024-02-28T10:07:44;16.50;;;8.57;;
23322;SDS011;11833;52.554;13.554;2024-02-28T10:10:11;21.15;;;11.70;;
23322;SDS011;11833;52.554;13.554;2024-02-28T10:12:41;13.45;;;9.00;;
23322;SDS011;11833;52.554;13.554;2024-02-28T10:15:08;10.35;;;7.40;;
23322;SDS011;11833;52.554;13.554;2024-02-28T10:17:35;13.27;;;8.38;;
23322;SDS011;11833;52.554;13.554;2024-02-28T10:20:01;8.75;;;6.97;;
23322;SDS011;11833;52.554;13.554;2024-02-28T10:22:33;10.57;;;7.38;;
23322;SDS011;11833;52.554;13.554;2024-02-28T10:25:00;10.55;;;7.72;;
23322;SDS011;11833;52.554;13.554;2024-02-28T10:27:26;11.18;;;7.35;;
23322;SDS011;11833;52.554;13.554;2024-02-28T10:29:52;10.80;;;7.10;;
23322;SDS011;11833;52.554;13.554;2024-02-28T10:32:17;10.23;;;7.07;;
23322;SDS011;11833;52.554;13.554;2024-02-28T10:34:43;10.80;;;7.15;;
23322;SDS011;11833;52.554;13.554;2024-02-28T10:37:10;12.33;;;8.47;;
23322;SDS011;11833;52.554;13.554;2024-02-28T10:39:37;13.80;;;8.27;;
23322;SDS011;11833;52.554;13.554;2024-02-28T10:42:03;14.50;;;9.03;;
23322;SDS011;11833;52.554;13.554;2024-02-28T10:44:31;14.93;;;9.32;;
23322;SDS011;11833;52.554;13.554;2024-02-28T10:47:00;14.85;;;9.15;;
23322;SDS011;11833;52.554;13.554;2024-02-28T10:49:28;14.20;;;9.13;;
23322;SDS011;11833;52.554;13.554;2024-02-28T10:51:55;13.38;;;9.15;;
23322;SDS011;11833;52.554;13.554;2024-02-28T10:54:21;15.80;;;9.35;;
23322;SDS011;11833;52.554;13.554;2024-02-28T10:56:50;12.82;;;8.48;;
23322;SDS011;11833;52.554;13.554;2024-02-28T10:59:18;13.65;;;9.02;;
23322;SDS011;11833;52.554;13.554;2024-02-28T11:01:45;13.40;;;9.05;;
23322;SDS011;11833;52.554;13.554;2024-02-28T11:04:11;13.02;;;9.02;;
23322;SDS011;11833;52.554;13.554;2024-02-28T11:06:47;14.82;;;10.00;;
23322;SDS011;11833;52.554;13.554;2024-02-28T11:09:19;12.63;;;9.23;;
23322;SDS011;11833;52.554;13.554;2024-02-28T11:11:51;14.32;;;8.95;;
23322;SDS011;11833;52.554;13.554;2024-02-28T11:14:17;15.82;;;10.70;;
23322;SDS011;11833;52.554;13.554;2024-02-28T11:16:47;14.97;;;9.63;;
23322;SDS011;11833;52.554;13.554;2024-02-28T11:19:20;20.10;;;11.55;;
23322;SDS011;11833;52.554;13.554;2024-02-28T11:21:53;12.65;;;8.35;;
23322;SDS011;11833;52.554;13.554;2024-02-28T11:24:22;14.93;;;9.00;;
23322;SDS011;11833;52.554;13.554;2024-02-28T11:27:01;16.60;;;10.98;;
23322;SDS011;11833;52.554;13.554;2024-02-28T11:29:28;14.50;;;10.00;;
23322;SDS011;11833;52.554;13.554;2024-02-28T11:31:54;15.98;;;10.68;;
23322;SDS011;11833;52.554;13.554;2024-02-28T11:34:20;15.13;;;10.27;;
23322;SDS011;11833;52.554;13.554;2024-02-28T11:36:47;12.40;;;7.75;;
23322;SDS011;11833;52.554;13.554;2024-02-28T11:39:16;13.05;;;9.82;;
23322;SDS011;11833;52.554;13.554;2024-02-28T11:41:43;13.40;;;9.17;;
23322;SDS011;11833;52.554;13.554;2024-02-28T11:44:13;16.45;;;10.48;;
23322;SDS011;11833;52.554;13.554;2024-02-28T11:46:44;16.25;;;10.05;;
23322;SDS011;11833;52.554;13.554;2024-02-28T11:49:13;16.27;;;10.80;;
23322;SDS011;11833;52.554;13.554;2024-02-28T11:51:43;16.83;;;11.23;;
23322;SDS011;11833;52.554;13.554;2024-02-28T11:54:09;14.67;;;10.47;;
23322;SDS011;11833;52.554;13.554;2024-02-28T11:56:37;16.17;;;11.50;;
23322;SDS011;11833;52.554;13.554;2024-02-28T11:59:03;15.90;;;10.87;;
23322;SDS011;11833;52.554;13.554;2024-02-28T12:01:36;16.88;;;10.50;;
23322;SDS011;11833;52.554;13.554;2024-02-28T12:04:04;15.55;;;10.07;;
23322;SDS011;11833;52.554;13.554;2024-02-28T12:06:31;16.40;;;10.38;;
23322;SDS011;11833;52.554;13.554;2024-02-28T12:09:07;16.45;;;11.40;;
23322;SDS011;11833;52.554;13.554;2024-02-28T12:11:34;18.35;;;12.02;;
23322;SDS011;11833;52.554;13.554;2024-02-28T12:14:04;16.00;;;10.88;;
23322;SDS011;11833;52.554;13.554;2024-02-28T12:16:37;16.45;;;10.95;;
23322;SDS011;11833;52.554;13.554;2024-02-28T12:19:08;15.00;;;10.48;;
23322;SDS011;11833;52.554;13.554;2024-02-28T12:21:38;16.38;;;11.10;;
23322;SDS011;11833;52.554;13.554;2024-02-28T12:24:05;18.15;;;11.15;;
23322;SDS011;11833;52.554;13.554;2024-02-28T12:26:36;16.92;;;11.27;;
23322;SDS011;11833;52.554;13.554;2024-02-28T12:29:03;15.32;;;10.20;;
23322;SDS011;11833;52.554;13.554;2024-02-28T12:31:28;15.30;;;10.30;;
23322;SDS011;11833;52.554;13.554;2024-02-28T12:33:54;13.40;;;9.25;;
23322;SDS011;11833;52.554;13.554;2024-02-28T12:36:20;18.60;;;10.57;;
23322;SDS011;11833;52.554;13.554;2024-02-28T12:38:46;16.00;;;10.98;;
23322;SDS011;11833;52.554;13.554;2024-02-28T12:41:13;14.80;;;10.23;;
23322;SDS011;11833;52.554;13.554;2024-02-28T12:43:40;13.60;;;9.63;;
23322;SDS011;11833;52.554;13.554;2024-02-28T12:46:06;13.95;;;9.10;;
23322;SDS011;11833;52.554;13.554;2024-02-28T12:48:38;14.38;;;8.88;;
23322;SDS011;11833;52.554;13.554;2024-02-28T12:51:05;12.77;;;8.80;;
23322;SDS011;11833;52.554;13.554;2024-02-28T12:53:33;14.52;;;9.52;;
23322;SDS011;11833;52.554;13.554;2024-02-28T12:55:59;13.77;;;9.75;;
23322;SDS011;11833;52.554;13.554;2024-02-28T12:58:25;15.13;;;9.85;;
23322;SDS011;11833;52.554;13.554;2024-02-28T13:00:51;15.07;;;10.18;;
23322;SDS011;11833;52.554;13.554;2024-02-28T13:03:17;12.68;;;8.48;;
23322;SDS011;11833;52.554;13.554;2024-02-28T13:05:43;12.85;;;9.10;;
23322;SDS011;11833;52.554;13.554;2024-02-28T13:08:09;13.63;;;8.70;;
23322;SDS011;11833;52.554;13.554;2024-02-28T13:10:35;12.20;;;8.10;;
23322;SDS011;11833;52.554;13.554;2024-02-28T13:13:05;11.55;;;8.40;;
23322;SDS011;11833;52.554;13.554;2024-02-28T13:15:32;12.05;;;8.45;;
23322;SDS011;11833;52.554;13.554;2024-02-28T13:17:59;13.07;;;8.20;;
23322;SDS011;11833;52.554;13.554;2024-02-28T13:20:26;15.55;;;8.65;;
23322;SDS011;11833;52.554;13.554;2024-02-28T13:22:52;14.00;;;7.93;;
23322;SDS011;11833;52.554;13.554;2024-02-28T13:25:18;13.32;;;8.52;;
23322;SDS011;11833;52.554;13.554;2024-02-28T13:27:45;13.43;;;8.20;;
23322;SDS011;11833;52.554;13.554;2024-02-28T13:30:11;12.20;;;7.90;;
23322;SDS011;11833;52.554;13.554;2024-02-28T13:32:39;10.88;;;7.60;;
23322;SDS011;11833;52.554;13.554;2024-02-28T13:35:04;13.35;;;8.50;;
23322;SDS011;11833;52.554;13.554;2024-02-28T13:37:30;11.40;;;7.05;;
23322;SDS011;11833;52.554;13.554;2024-02-28T13:39:58;11.27;;;7.65;;
23322;SDS011;11833;52.554;13.554;2024-02-28T13:42:24;12.23;;;7.72;;
23322;SDS011;11833;52.554;13.554;2024-02-28T13:44:50;10.73;;;7.55;;
23322;SDS011;11833;52.554;13.554;2024-02-28T13:47:16;10.63;;;7.35;;
23322;SDS011;11833;52.554;13.554;2024-02-28T13:49:41;10.38;;;6.63;;
23322;SDS011;11833;52.554;13.554;2024-02-28T13:52:07;9.10;;;6.97;;
23322;SDS011;11833;52.554;13.554;2024-02-28T13:54:33;9.48;;;7.05;;
23322;SDS011;11833;52.554;13.554;2024-02-28T13:57:00;10.40;;;7.20;;
23322;SDS011;11833;52.554;13.554;2024-02-28T13:59:26;9.97;;;7.40;;
23322;SDS011;11833;52.554;13.554;2024-02-28T14:01:52;11.27;;;7.60;;
23322;SDS011;11833;52.554;13.554;2024-02-28T14:04:18;11.10;;;7.43;;
23322;SDS011;11833;52.554;13.554;2024-02-28T14:06:44;9.18;;;6.55;;
23322;SDS011;11833;52.554;13.554;2024-02-28T14:09:10;20.23;;;12.20;;
23322;SDS011;11833;52.554;13.554;2024-02-28T14:11:36;10.90;;;8.10;;
23322;SDS011;11833;52.554;13.554;2024-02-28T14:14:02;12.38;;;7.25;;
23322;SDS011;11833;52.554;13.554;2024-02-28T14:16:29;9.88;;;7.47;;
23322;SDS011;11833;52.554;13.554;2024-02-28T14:18:57;10.93;;;7.85;;